Clarksburg, MO (65025)

7:15 PM CST on November 23, 2014 (GMT -0600)
KMOCALIF1 | Change Station
CLOSE
Current Station
Personal Weather Station
Location: California, MO
Elevation: 864 ft
Nearby Weather Stations

Elev 864 ft 38.63 °N, 92.57 °W | Updated 22 seconds ago

Fog
Fog
54.6 °F
Feels Like 54.6 °F
N
0.0
Wind Variable Wind from SSW
Gusts 0.0 mph

Today
High -- | Low -- °F
--% Chance of Precip.
Yesterday
High -- | Low -- °F
Precip. -- in
7:01 AM 4:52 PM
Waxing Crescent, 3% visible
Pressure 29.29 in
Visibility 0.5 miles
Clouds Overcast 400 ft
Dew Point 54 °F
Humidity 96%
Rainfall 0.25 in
Snow Depth Not available.
UV 0.0 out of 12
Pollen .30 out of 12
Air Quality Not available.
Flu Activity Not available.
METAR KVER 240055Z AUTO 00000KT 1/2SM FG OVC004 12/12 A2929 RMK AO2 LTG DSNT S T01210122

More Conditions Fewer Conditions

Pressure 29.29 in
Visibility 0.5 miles
Clouds Overcast 400 ft
Dew Point 54 °F
Humidity 96%
Rainfall 0.25 in
Snow Depth Not available.
UV 0.0 out of 12
Pollen .30 out of 12
Air Quality Not available.
Flu Activity Not available.
METAR KVER 240055Z AUTO 00000KT 1/2SM FG OVC004 12/12 A2929 RMK AO2 LTG DSNT S T01210122

More Conditions Fewer Conditions

10-Day Weather Forecast

Almanac

Astronomy

Nov. 23, 2014 Rise Set
Actual Time
Civil Twilight
Nautical Twilight
Astronomical Twilight
Moon
Length of Visible Light
Length of Day
Tomorrow will be .
, % of the Moon is Illuminated

Today's Extremes

State Highs State Lows

Community

WunderPhotos

Upload Photos

1,773,234 photos uploaded!

WunderBlogs® & News

Nearby

Air Quality

  Air Quality AQ Index Pollutant
Not available.

Snow Depth

Station Depth Elevation

Earthquake Activity

City Distance Mag. Time & Date
Minimum magnitude displayed is 2.5.

Coastal Water Temperatures

Place Temperature

Nearby Weather Stations